createdAt,value
2018-04-11T00:00:32.432Z,43.50
2018-04-11T00:01:34.944Z,43.50
2018-04-11T00:02:37.442Z,43.50
2018-04-11T00:03:40.707Z,43.50
2018-04-11T00:04:43.308Z,43.50
2018-04-11T00:05:45.865Z,43.70
2018-04-11T00:06:49.179Z,43.50
2018-04-11T00:07:51.686Z,43.50
2018-04-11T00:08:54.193Z,43.60
2018-04-11T00:09:56.761Z,43.50
2018-04-11T00:10:59.325Z,43.60
2018-04-11T00:12:01.831Z,43.60
2018-04-11T00:13:04.454Z,43.70
2018-04-11T00:14:06.963Z,43.70
2018-04-11T00:15:09.468Z,43.60
2018-04-11T00:16:12.753Z,43.70
2018-04-11T00:17:16.057Z,43.70
2018-04-11T00:18:18.564Z,43.70
2018-04-11T00:19:21.070Z,43.70
2018-04-11T00:20:24.340Z,43.70
2018-04-11T00:21:26.942Z,43.70
2018-04-11T00:22:29.505Z,43.70
2018-04-11T00:23:32.046Z,43.70
2018-04-11T00:24:35.356Z,43.60
2018-04-11T00:25:37.849Z,43.60
2018-04-11T00:26:40.344Z,43.60
2018-04-11T00:27:42.854Z,43.70
2018-04-11T00:28:45.402Z,43.60
2018-04-11T00:29:48.666Z,43.60
2018-04-11T00:30:51.262Z,43.60
2018-04-11T00:31:53.814Z,43.70
2018-04-11T00:32:57.088Z,43.60
2018-04-11T00:34:00.351Z,43.60
2018-04-11T00:35:02.973Z,43.60
2018-04-11T00:36:05.479Z,43.60
2018-04-11T00:37:07.978Z,43.60
2018-04-11T00:38:11.266Z,43.60
2018-04-11T00:39:13.777Z,43.60
2018-04-11T00:40:16.284Z,43.60
2018-04-11T00:41:19.559Z,43.60
2018-04-11T00:42:22.057Z,43.60
2018-04-11T00:43:24.611Z,43.70
2018-04-11T00:44:27.875Z,43.70
2018-04-11T00:45:30.375Z,43.80
2018-04-11T00:46:32.880Z,43.80
2018-04-11T00:47:35.379Z,43.80
2018-04-11T00:48:38.687Z,43.80
2018-04-11T00:49:41.184Z,43.80
2018-04-11T00:50:43.689Z,43.80
2018-04-11T00:51:46.965Z,43.90
2018-04-11T00:53:01.350Z,43.80
2018-04-11T00:54:03.892Z,44.00
2018-04-11T00:55:07.155Z,43.80
2018-04-11T00:56:09.677Z,43.80
2018-04-11T00:57:12.176Z,43.40
2018-04-11T00:58:14.687Z,43.70
2018-04-11T00:59:17.230Z,43.70
2018-04-11T01:00:20.499Z,43.80
2018-04-11T01:01:22.991Z,43.80
2018-04-11T01:02:25.522Z,43.70
2018-04-11T01:03:28.018Z,43.70
2018-04-11T01:04:31.296Z,43.70
2018-04-11T01:05:34.558Z,43.70
2018-04-11T01:06:37.114Z,43.70
2018-04-11T01:07:39.621Z,43.60
2018-04-11T01:08:42.170Z,43.60
2018-04-11T01:09:45.443Z,43.60
2018-04-11T01:10:48.701Z,43.60
2018-04-11T01:11:51.228Z,43.60
2018-04-11T01:12:53.748Z,43.70
2018-04-11T01:13:56.250Z,43.60
2018-04-11T01:14:58.758Z,43.70
2018-04-11T01:16:01.255Z,43.60
2018-04-11T01:17:03.845Z,43.60
2018-04-11T01:18:06.434Z,43.60
2018-04-11T01:19:09.004Z,43.70
2018-04-11T01:20:11.552Z,43.60
2018-04-11T01:21:14.071Z,43.70
2018-04-11T01:22:16.589Z,43.60
2018-04-11T01:23:19.142Z,43.50
2018-04-11T01:24:21.646Z,43.60
2018-04-11T01:25:24.163Z,43.50
2018-04-11T01:26:27.469Z,43.70
2018-04-11T01:27:29.970Z,43.50
2018-04-11T01:28:32.479Z,43.50
2018-04-11T01:29:35.741Z,43.50
2018-04-11T01:30:38.322Z,43.50
2018-04-11T01:31:41.632Z,43.60
2018-04-11T01:32:44.143Z,43.60
2018-04-11T01:33:46.678Z,43.50
2018-04-11T01:34:49.178Z,43.50
2018-04-11T01:35:51.693Z,43.50
2018-04-11T01:36:54.197Z,43.50
2018-04-11T01:37:56.722Z,43.50
2018-04-11T01:38:59.267Z,43.50
2018-04-11T01:40:02.560Z,43.50
2018-04-11T01:41:05.090Z,43.50
2018-04-11T01:42:09.115Z,43.50
2018-04-11T01:43:12.391Z,43.50
2018-04-11T01:44:15.666Z,43.50
2018-04-11T01:45:18.967Z,43.50
2018-04-11T01:46:22.315Z,43.50
2018-04-11T01:47:24.806Z,43.40
2018-04-11T01:48:27.303Z,43.40
2018-04-11T01:49:29.807Z,43.50
2018-04-11T01:50:32.339Z,43.60
2018-04-11T01:51:34.846Z,43.70
2018-04-11T01:52:37.394Z,43.90
2018-04-11T01:53:39.887Z,43.90
2018-04-11T01:54:42.381Z,44.00
2018-04-11T01:55:45.651Z,43.90
2018-04-11T01:56:48.953Z,43.90
2018-04-11T01:57:51.451Z,43.80
2018-04-11T01:58:53.966Z,43.90
2018-04-11T01:59:57.258Z,43.80
2018-04-11T02:01:00.513Z,43.70
2018-04-11T02:02:03.026Z,43.70
2018-04-11T02:03:05.530Z,43.80
2018-04-11T02:04:08.031Z,43.90
2018-04-11T02:05:11.287Z,43.80
2018-04-11T02:06:13.898Z,43.70
2018-04-11T02:07:16.397Z,43.80
2018-04-11T02:08:18.907Z,43.60
2018-04-11T02:09:21.417Z,43.70
2018-04-11T02:10:23.914Z,43.70
2018-04-11T02:11:26.434Z,43.70
2018-04-11T02:12:28.924Z,43.70
2018-04-11T02:13:31.443Z,43.60
2018-04-11T02:14:34.728Z,43.60
2018-04-11T02:15:37.990Z,43.60
2018-04-11T02:16:40.598Z,43.50
2018-04-11T02:17:43.109Z,43.60
2018-04-11T02:18:45.603Z,43.60
2018-04-11T02:19:48.928Z,43.60
2018-04-11T02:20:51.466Z,43.60
2018-04-11T02:21:53.982Z,43.70
2018-04-11T02:22:56.485Z,43.70
2018-04-11T02:23:59.754Z,43.70
2018-04-11T02:25:02.282Z,43.60
2018-04-11T02:26:04.791Z,43.60
2018-04-11T02:27:07.287Z,43.50
2018-04-11T02:28:09.799Z,43.70
2018-04-11T02:29:12.316Z,43.50
2018-04-11T02:30:14.827Z,43.50
2018-04-11T02:31:17.326Z,43.50
2018-04-11T02:32:20.623Z,43.50
2018-04-11T02:33:23.151Z,43.40
2018-04-11T02:34:25.673Z,43.50
2018-04-11T02:35:28.182Z,43.50
2018-04-11T02:36:30.669Z,43.50
2018-04-11T02:37:33.932Z,43.40
2018-04-11T02:38:36.535Z,43.40
2018-04-11T02:39:39.026Z,43.40
2018-04-11T02:40:41.519Z,43.30
2018-04-11T02:41:44.018Z,43.30
2018-04-11T02:42:47.314Z,43.30
2018-04-11T02:43:49.824Z,43.30
2018-04-11T02:44:52.417Z,43.20
2018-04-11T02:45:54.866Z,43.30
2018-04-11T02:46:57.366Z,43.30
2018-04-11T02:48:00.623Z,43.20
2018-04-11T02:49:03.168Z,43.20
2018-04-11T02:50:05.673Z,43.20
2018-04-11T02:51:08.947Z,43.20
2018-04-11T02:52:11.447Z,43.10
2018-04-11T02:53:14.003Z,43.10
2018-04-11T02:54:16.555Z,43.10
2018-04-11T02:55:19.842Z,43.10
2018-04-11T02:56:23.119Z,43.20
2018-04-11T02:57:26.406Z,43.10
2018-04-11T02:58:29.711Z,43.20
2018-04-11T02:59:32.275Z,43.90
2018-04-11T03:00:34.827Z,43.20
2018-04-11T03:01:38.097Z,43.30
2018-04-11T03:02:40.596Z,43.30
2018-04-11T03:03:43.091Z,43.30
2018-04-11T03:04:45.589Z,43.30
2018-04-11T03:05:48.101Z,43.30
2018-04-11T03:06:50.594Z,44.00
2018-04-11T03:07:53.116Z,43.30
2018-04-11T03:08:55.615Z,43.20
2018-04-11T03:09:58.120Z,43.30
2018-04-11T03:11:01.406Z,43.90
2018-04-11T03:12:04.707Z,43.30
2018-04-11T03:13:07.977Z,43.20
2018-04-11T03:14:11.234Z,43.20
2018-04-11T03:15:15.248Z,43.00
2018-04-11T03:16:17.754Z,43.10
2018-04-11T03:17:20.248Z,43.10
2018-04-11T03:18:22.746Z,43.10
2018-04-11T03:19:26.013Z,43.10
2018-04-11T03:20:28.514Z,43.10
2018-04-11T03:21:31.078Z,43.40
2018-04-11T03:22:34.357Z,43.30
2018-04-11T03:23:37.643Z,43.40
2018-04-11T03:24:40.907Z,43.40
2018-04-11T03:25:43.398Z,43.40
2018-04-11T03:26:45.964Z,43.40
2018-04-11T03:27:48.470Z,43.40
2018-04-11T03:28:50.964Z,43.40
2018-04-11T03:29:53.470Z,43.30
2018-04-11T03:30:56.019Z,43.30
2018-04-11T03:31:59.299Z,43.30
2018-04-11T03:33:02.561Z,43.30
2018-04-11T03:34:05.190Z,43.20
2018-04-11T03:35:07.688Z,43.20
2018-04-11T03:36:11.722Z,43.50
2018-04-11T03:37:15.006Z,43.60
2018-04-11T03:38:17.518Z,43.50
2018-04-11T03:39:20.031Z,43.50
2018-04-11T03:40:23.318Z,43.40
2018-04-11T03:41:26.588Z,43.40
2018-04-11T03:42:29.870Z,43.30
2018-04-11T03:43:33.153Z,43.90
2018-04-11T03:44:35.656Z,43.30
2018-04-11T03:45:38.186Z,43.30
2018-04-11T03:46:41.497Z,43.30
2018-04-11T03:47:44.054Z,43.30
2018-04-11T03:48:46.558Z,43.30
2018-04-11T03:49:49.055Z,43.30
2018-04-11T03:50:51.546Z,43.30
2018-04-11T03:51:54.113Z,43.40
2018-04-11T03:52:57.502Z,43.30
2018-04-11T03:54:00.014Z,43.20
2018-04-11T03:55:02.508Z,43.30
2018-04-11T03:56:05.215Z,43.20
2018-04-11T03:57:07.723Z,43.20
2018-04-11T03:58:10.267Z,43.10
2018-04-11T03:59:12.771Z,43.10
2018-04-11T04:00:15.274Z,43.10
2018-04-11T04:01:17.827Z,43.20
2018-04-11T04:02:20.395Z,43.20
2018-04-11T04:03:22.902Z,43.10
2018-04-11T04:04:25.397Z,43.30
2018-04-11T04:05:27.890Z,44.00
2018-04-11T04:06:31.174Z,43.10
2018-04-11T04:07:33.687Z,43.20
2018-04-11T04:08:36.283Z,43.20
2018-04-11T04:09:39.547Z,43.10
2018-04-11T04:10:42.042Z,43.10
2018-04-11T04:11:45.306Z,43.10
2018-04-11T04:12:47.822Z,43.00
2018-04-11T04:14:02.189Z,43.10
2018-04-11T04:15:16.806Z,43.20
2018-04-11T04:16:31.225Z,43.10
2018-04-11T04:17:57.335Z,43.10
2018-04-11T04:19:11.812Z,43.10
2018-04-11T04:20:39.824Z,43.60
2018-04-11T04:21:42.334Z,43.10
2018-04-11T04:22:44.887Z,43.20
2018-04-11T04:23:48.158Z,43.30
2018-04-11T04:24:50.766Z,43.20
2018-04-11T04:25:53.262Z,42.70
2018-04-11T04:26:55.758Z,43.30
2018-04-11T04:27:58.266Z,43.20
2018-04-11T04:29:00.755Z,43.10
2018-04-11T04:30:03.260Z,43.20
2018-04-11T04:31:06.537Z,43.20
2018-04-11T04:32:09.040Z,43.10
2018-04-11T04:33:11.554Z,43.30
2018-04-11T04:34:14.054Z,43.30
2018-04-11T04:35:16.564Z,43.40
2018-04-11T04:36:19.063Z,43.50
2018-04-11T04:37:22.335Z,42.90
2018-04-11T04:38:24.958Z,43.40
2018-04-11T04:39:27.458Z,43.50
2018-04-11T04:40:29.956Z,43.50
2018-04-11T04:41:33.227Z,43.70
2018-04-11T04:42:35.725Z,43.70
2018-04-11T04:43:38.239Z,44.00
2018-04-11T04:44:42.405Z,44.10
2018-04-11T04:45:44.936Z,44.00
2018-04-11T04:46:48.229Z,44.00
2018-04-11T04:47:50.739Z,44.00
2018-04-11T04:48:53.244Z,44.10
2018-04-11T04:49:56.552Z,45.00
2018-04-11T04:50:59.052Z,44.20
2018-04-11T04:52:01.556Z,44.10
2018-04-11T04:53:04.063Z,44.00
2018-04-11T04:54:06.618Z,44.00
2018-04-11T04:55:09.131Z,43.90
2018-04-11T04:56:11.623Z,43.90
2018-04-11T04:57:15.149Z,43.90
2018-04-11T04:58:17.665Z,43.90
2018-04-11T04:59:20.270Z,43.90
2018-04-11T05:00:22.771Z,44.30
2018-04-11T05:01:25.291Z,44.20
2018-04-11T05:02:27.781Z,44.00
2018-04-11T05:03:30.283Z,44.20
2018-04-11T05:04:32.783Z,44.20
2018-04-11T05:05:36.046Z,44.40
2018-04-11T05:06:38.575Z,44.40
2018-04-11T05:07:41.109Z,44.40
2018-04-11T05:08:43.657Z,44.40
2018-04-11T05:09:46.948Z,44.30
2018-04-11T05:10:50.224Z,44.40
2018-04-11T05:11:53.506Z,44.40
2018-04-11T05:12:56.823Z,44.40
2018-04-11T05:13:59.367Z,44.40
2018-04-11T05:15:02.655Z,44.50
2018-04-11T05:16:05.240Z,44.50
2018-04-11T05:17:07.779Z,44.50
2018-04-11T05:18:11.045Z,44.70
2018-04-11T05:19:13.548Z,44.60
2018-04-11T05:20:16.103Z,44.70
2018-04-11T05:21:18.568Z,44.80
2018-04-11T05:22:21.088Z,44.80
2018-04-11T05:23:23.583Z,44.70
2018-04-11T05:24:26.090Z,44.70
2018-04-11T05:25:28.595Z,44.50
2018-04-11T05:26:31.083Z,44.20
2018-04-11T05:27:34.337Z,43.70
2018-04-11T05:28:36.844Z,43.70
2018-04-11T05:29:39.391Z,43.70
2018-04-11T05:30:42.651Z,44.00
2018-04-11T05:31:45.158Z,43.90
2018-04-11T05:32:47.676Z,43.80
2018-04-11T05:33:50.294Z,44.00
2018-04-11T05:34:52.818Z,44.00
2018-04-11T05:35:55.435Z,43.90
2018-04-11T05:36:57.997Z,43.90
2018-04-11T05:38:00.508Z,43.90
2018-04-11T05:39:03.009Z,43.90
2018-04-11T05:40:06.286Z,43.90
2018-04-11T05:41:09.541Z,43.90
2018-04-11T05:42:12.034Z,43.80
2018-04-11T05:43:15.299Z,43.80
2018-04-11T05:44:17.804Z,43.70
2018-04-11T05:45:20.346Z,43.70
2018-04-11T05:46:23.623Z,43.80
2018-04-11T05:47:27.043Z,43.70
2018-04-11T05:48:29.565Z,44.10
2018-04-11T05:49:32.147Z,43.80
2018-04-11T05:50:35.414Z,44.60
2018-04-11T05:51:37.999Z,44.60
2018-04-11T05:52:41.265Z,45.10
2018-04-11T05:53:43.885Z,45.10
2018-04-11T05:54:46.445Z,45.50
2018-04-11T05:55:48.961Z,45.50
2018-04-11T05:56:52.241Z,45.10
2018-04-11T05:57:54.790Z,45.10
2018-04-11T05:58:57.297Z,45.20
2018-04-11T06:00:00.574Z,45.00
2018-04-11T06:01:03.088Z,44.90
2018-04-11T06:02:05.630Z,44.90
2018-04-11T06:03:08.184Z,44.80
2018-04-11T06:04:11.454Z,44.70
2018-04-11T06:05:14.723Z,44.90
2018-04-11T06:06:17.237Z,44.90
2018-04-11T06:07:19.803Z,45.00
2018-04-11T06:08:22.362Z,45.10
2018-04-11T06:09:24.891Z,44.90
2018-04-11T06:10:28.930Z,45.00
2018-04-11T06:11:31.446Z,45.00
2018-04-11T06:12:33.942Z,45.00
2018-04-11T06:13:37.242Z,45.10
2018-04-11T06:14:39.799Z,44.90
2018-04-11T06:15:43.059Z,45.00
2018-04-11T06:16:45.571Z,44.90
2018-04-11T06:17:48.063Z,45.60
2018-04-11T06:18:50.562Z,44.90
2018-04-11T06:19:53.818Z,44.80
2018-04-11T06:20:56.314Z,44.80
2018-04-11T06:21:59.595Z,44.80
2018-04-11T06:23:02.913Z,44.80
2018-04-11T06:24:05.451Z,44.70
2018-04-11T06:25:08.739Z,44.80
2018-04-11T06:26:12.014Z,44.70
2018-04-11T06:27:15.323Z,44.80
2018-04-11T06:28:17.873Z,44.80
2018-04-11T06:29:21.146Z,44.80
2018-04-11T06:30:24.407Z,44.70
2018-04-11T06:31:26.898Z,44.70
2018-04-11T06:32:30.192Z,44.80
2018-04-11T06:33:32.773Z,44.70
2018-04-11T06:34:35.298Z,40.80
2018-04-11T06:35:38.563Z,40.80
2018-04-11T06:36:41.067Z,40.60
2018-04-11T06:37:44.340Z,40.40
2018-04-11T06:38:47.648Z,40.70
2018-04-11T06:39:50.216Z,40.70
2018-04-11T06:40:52.758Z,40.70
2018-04-11T06:41:56.019Z,40.40
2018-04-11T06:42:58.527Z,40.30
2018-04-11T06:44:01.046Z,41.00
2018-04-11T06:45:03.567Z,41.10
2018-04-11T06:46:06.077Z,41.20
2018-04-11T06:47:08.575Z,41.90
2018-04-11T06:48:11.847Z,42.50
2018-04-11T06:49:15.157Z,42.30
2018-04-11T06:50:17.666Z,42.30
2018-04-11T06:51:20.167Z,42.20
2018-04-11T06:52:23.435Z,42.50
2018-04-11T06:53:25.945Z,42.30
2018-04-11T06:54:28.455Z,42.60
2018-04-11T06:55:30.969Z,42.40
2018-04-11T06:56:33.908Z,42.60
2018-04-11T06:57:36.407Z,42.50
2018-04-11T06:58:38.962Z,42.50
2018-04-11T06:59:42.231Z,43.00
2018-04-11T07:00:45.494Z,43.10
2018-04-11T07:01:47.990Z,43.00
2018-04-11T07:02:51.270Z,43.10
2018-04-11T07:03:54.551Z,43.40
2018-04-11T07:04:57.823Z,43.70
2018-04-11T07:06:01.086Z,43.40
2018-04-11T07:07:03.582Z,43.50
2018-04-11T07:08:06.869Z,43.40
2018-04-11T07:09:10.578Z,43.60
2018-04-11T07:10:13.145Z,43.60
2018-04-11T07:11:15.687Z,43.90
2018-04-11T07:12:18.958Z,44.30
2018-04-11T07:13:22.257Z,44.90
2018-04-11T07:14:25.513Z,45.80
2018-04-11T07:15:28.018Z,45.80
2018-04-11T07:16:30.521Z,45.10
2018-04-11T07:17:33.010Z,44.60
2018-04-11T07:18:35.514Z,44.80
2018-04-11T07:19:38.012Z,44.90
2018-04-11T07:20:40.602Z,44.80
2018-04-11T07:21:43.109Z,44.80
2018-04-11T07:22:45.606Z,44.70
2018-04-11T07:23:48.111Z,44.80
2018-04-11T07:24:50.630Z,44.80
2018-04-11T07:25:53.183Z,44.80
2018-04-11T07:26:56.433Z,45.20
2018-04-11T07:27:59.699Z,45.10
2018-04-11T07:29:03.699Z,45.30
2018-04-11T07:30:06.208Z,45.30
2018-04-11T07:31:08.726Z,45.40
2018-04-11T07:32:11.326Z,45.20
2018-04-11T07:33:14.595Z,45.10
2018-04-11T07:34:17.902Z,45.30
2018-04-11T07:35:20.474Z,45.10
2018-04-11T07:36:23.058Z,44.70
2018-04-11T07:37:25.555Z,44.50
2018-04-11T07:38:28.147Z,44.00
2018-04-11T07:39:31.436Z,44.60
2018-04-11T07:40:34.724Z,44.40
2018-04-11T07:41:38.003Z,44.30
2018-04-11T07:42:41.308Z,44.20
2018-04-11T07:43:43.830Z,44.20
2018-04-11T07:44:46.340Z,44.40
2018-04-11T07:45:48.842Z,44.70
2018-04-11T07:46:51.350Z,44.80
2018-04-11T07:47:54.622Z,44.30
2018-04-11T07:48:57.891Z,44.40
2018-04-11T07:50:01.917Z,44.40
2018-04-11T07:51:05.178Z,44.60
2018-04-11T07:52:07.675Z,44.60
2018-04-11T07:53:10.219Z,44.20
2018-04-11T07:54:12.730Z,44.10
2018-04-11T07:55:15.282Z,44.00
2018-04-11T07:56:17.859Z,44.60
2018-04-11T07:57:20.517Z,44.60
2018-04-11T07:58:23.021Z,44.10
2018-04-11T07:59:25.519Z,44.20
2018-04-11T08:00:28.779Z,44.50
2018-04-11T08:01:31.269Z,44.40
2018-04-11T08:02:34.550Z,44.20
2018-04-11T08:03:37.826Z,43.90
2018-04-11T08:04:40.326Z,44.00
2018-04-11T08:05:42.823Z,43.70
2018-04-11T08:06:45.352Z,43.90
2018-04-11T08:07:48.076Z,43.80
2018-04-11T08:08:50.615Z,43.70
2018-04-11T08:09:53.120Z,43.80
2018-04-11T08:10:55.706Z,44.40
2018-04-11T08:11:58.969Z,44.50
2018-04-11T08:13:01.558Z,44.40
2018-04-11T08:14:04.819Z,45.40
2018-04-11T08:15:07.329Z,45.40
2018-04-11T08:16:09.878Z,44.30
2018-04-11T08:17:13.147Z,44.90
2018-04-11T08:18:16.462Z,43.90
2018-04-11T08:19:18.982Z,43.90
2018-04-11T08:20:21.480Z,44.30
2018-04-11T08:21:23.974Z,44.00
2018-04-11T08:22:26.470Z,44.00
2018-04-11T08:23:28.506Z,44.50
2018-04-11T08:24:31.014Z,44.70
2018-04-11T08:25:34.270Z,45.60
2018-04-11T08:26:36.811Z,45.50
2018-04-11T08:27:39.279Z,45.00
2018-04-11T08:28:41.806Z,45.30
2018-04-11T08:29:44.320Z,44.90
2018-04-11T08:30:46.830Z,45.20
2018-04-11T08:31:50.110Z,43.60
2018-04-11T08:32:53.375Z,43.60
2018-04-11T08:33:55.902Z,43.60
2018-04-11T08:34:58.402Z,43.20
2018-04-11T08:36:00.990Z,42.90
2018-04-11T08:37:04.247Z,43.20
2018-04-11T08:38:06.752Z,43.20
2018-04-11T08:39:09.303Z,42.70
2018-04-11T08:40:12.578Z,42.80
2018-04-11T08:41:15.879Z,43.70
2018-04-11T08:42:19.154Z,43.50
2018-04-11T08:43:22.430Z,43.70
2018-04-11T08:44:25.721Z,43.20
2018-04-11T08:45:28.990Z,43.00
2018-04-11T08:46:32.267Z,42.50
2018-04-11T08:47:34.797Z,42.40
2018-04-11T08:48:37.316Z,42.00
2018-04-11T08:49:40.717Z,42.20
2018-04-11T08:50:43.276Z,42.20
2018-04-11T08:51:46.583Z,42.20
2018-04-11T08:52:49.112Z,42.20
2018-04-11T08:53:52.376Z,42.30
2018-04-11T08:54:54.880Z,41.60
2018-04-11T08:55:57.408Z,41.90
2018-04-11T08:57:00.025Z,42.00
2018-04-11T08:58:02.608Z,41.70
2018-04-11T08:59:05.123Z,41.70
2018-04-11T09:00:07.682Z,41.30
2018-04-11T09:01:10.215Z,41.70
2018-04-11T09:02:12.723Z,41.30
2018-04-11T09:03:15.982Z,41.70
2018-04-11T09:04:18.474Z,41.60
2018-04-11T09:05:21.764Z,41.60
2018-04-11T09:06:25.024Z,40.90
2018-04-11T09:07:27.635Z,41.00
2018-04-11T09:08:30.136Z,40.80
2018-04-11T09:09:32.630Z,40.70
2018-04-11T09:10:35.922Z,41.90
2018-04-11T09:11:38.434Z,41.20
2018-04-11T09:12:40.941Z,40.60
2018-04-11T09:13:43.455Z,40.50
2018-04-11T09:14:46.015Z,40.60
2018-04-11T09:15:48.528Z,40.50
2018-04-11T09:16:51.045Z,40.40
2018-04-11T09:17:53.541Z,40.70
2018-04-11T09:18:56.182Z,40.50
2018-04-11T09:19:58.722Z,40.50
2018-04-11T09:21:02.031Z,41.20
2018-04-11T09:22:04.562Z,41.10
2018-04-11T09:23:07.831Z,40.60
2018-04-11T09:24:10.372Z,40.50
2018-04-11T09:25:12.884Z,40.40
2018-04-11T09:26:16.162Z,40.70
2018-04-11T09:27:19.449Z,40.60
2018-04-11T09:28:22.726Z,40.00
2018-04-11T09:29:26.004Z,40.40
2018-04-11T09:30:28.821Z,40.30
2018-04-11T09:31:31.334Z,41.20
2018-04-11T09:32:33.927Z,40.20
2018-04-11T09:33:37.184Z,40.10
2018-04-11T09:34:39.701Z,40.10
2018-04-11T09:35:42.235Z,39.70
2018-04-11T09:36:45.507Z,39.60
2018-04-11T09:37:48.016Z,39.50
2018-04-11T09:38:50.654Z,39.00
2018-04-11T09:39:53.950Z,39.80
2018-04-11T09:40:56.469Z,39.80
2018-04-11T09:41:59.068Z,39.50
2018-04-11T09:43:01.582Z,39.90
2018-04-11T09:44:04.090Z,39.80
2018-04-11T09:45:06.599Z,39.60
2018-04-11T09:46:09.087Z,39.60
2018-04-11T09:47:11.579Z,39.60
2018-04-11T09:48:14.119Z,39.30
2018-04-11T09:49:16.627Z,39.60
2018-04-11T09:50:19.918Z,39.10
2018-04-11T09:51:23.170Z,39.50
2018-04-11T09:52:25.663Z,39.50
2018-04-11T09:53:28.238Z,39.50
2018-04-11T09:54:30.932Z,39.20
2018-04-11T09:55:33.456Z,39.40
2018-04-11T09:56:36.747Z,38.90
2018-04-11T09:57:40.015Z,39.10
2018-04-11T09:58:42.557Z,39.10
2018-04-11T09:59:45.102Z,39.00
2018-04-11T10:00:53.603Z,39.00
2018-04-11T10:01:56.177Z,38.20
2018-04-11T10:03:04.411Z,38.60
2018-04-11T10:04:08.418Z,39.00
2018-04-11T10:05:10.936Z,39.00
2018-04-11T10:06:13.486Z,38.30
2018-04-11T10:07:16.040Z,38.50
2018-04-11T10:08:18.578Z,38.30
2018-04-11T10:09:21.116Z,38.40
2018-04-11T10:10:23.687Z,38.20
2018-04-11T10:11:26.317Z,38.40
2018-04-11T10:12:28.819Z,38.40
2018-04-11T10:13:31.412Z,38.50
2018-04-11T10:14:34.698Z,38.50
2018-04-11T10:15:37.288Z,38.50
2018-04-11T10:16:39.819Z,39.60
2018-04-11T10:17:44.882Z,38.60
2018-04-11T10:18:47.402Z,38.60
2018-04-11T10:19:49.922Z,38.60
2018-04-11T10:20:52.595Z,38.60
2018-04-11T10:21:55.098Z,37.30
2018-04-11T10:22:57.745Z,36.80
2018-04-11T10:24:00.407Z,36.60
2018-04-11T10:25:19.129Z,37.80
2018-04-11T10:26:21.674Z,37.90
2018-04-11T10:27:24.404Z,37.70
2018-04-11T10:28:26.985Z,37.60
2018-04-11T10:29:29.620Z,37.50
2018-04-11T10:30:32.479Z,37.40
2018-04-11T10:31:35.153Z,37.10
2018-04-11T10:32:38.145Z,36.90
2018-04-11T10:33:40.900Z,36.70
2018-04-11T10:34:43.683Z,36.70
2018-04-11T10:35:46.350Z,36.50
2018-04-11T10:36:49.281Z,36.40
2018-04-11T10:37:52.585Z,36.20
2018-04-11T10:38:55.975Z,36.20
2018-04-11T10:39:58.553Z,36.10
2018-04-11T10:41:01.057Z,36.10
2018-04-11T10:42:03.569Z,36.10
2018-04-11T10:43:06.069Z,36.20
2018-04-11T10:44:08.596Z,36.10
2018-04-11T10:45:11.169Z,35.60
2018-04-11T10:46:13.914Z,36.10
2018-04-11T10:47:17.229Z,36.20
2018-04-11T10:48:19.751Z,36.20
2018-04-11T10:49:22.264Z,36.00
2018-04-11T10:50:25.000Z,35.90
2018-04-11T10:51:27.608Z,35.70
2018-04-11T10:52:30.122Z,35.50
2018-04-11T10:53:32.633Z,35.30
2018-04-11T10:54:35.439Z,35.50
2018-04-11T10:55:37.943Z,35.60
2018-04-11T10:56:41.219Z,35.60
2018-04-11T10:57:43.822Z,35.60
2018-04-11T10:58:46.374Z,35.70
2018-04-11T10:59:49.638Z,35.80
2018-04-11T11:00:52.240Z,35.70
2018-04-11T11:01:54.770Z,36.00
2018-04-11T11:02:57.283Z,36.10
2018-04-11T11:03:59.812Z,36.20
2018-04-11T11:05:04.127Z,36.40
2018-04-11T11:06:06.650Z,36.40
2018-04-11T11:07:09.255Z,36.40
2018-04-11T11:08:12.519Z,36.10
2018-04-11T11:09:15.032Z,36.10
2018-04-11T11:10:17.594Z,36.00
2018-04-11T11:11:20.094Z,36.00
2018-04-11T11:12:22.634Z,36.30
2018-04-11T11:13:25.159Z,36.20
2018-04-11T11:14:28.475Z,36.20
2018-04-11T11:15:30.996Z,36.20
2018-04-11T11:16:35.527Z,36.20
2018-04-11T11:17:38.815Z,36.00
2018-04-11T11:18:42.090Z,35.90
2018-04-11T11:19:57.397Z,35.80
2018-04-11T11:20:59.950Z,35.80
2018-04-11T11:22:02.534Z,35.60
2018-04-11T11:23:05.118Z,35.50
2018-04-11T11:24:26.847Z,34.90
2018-04-11T11:25:31.265Z,34.80
2018-04-11T11:26:34.339Z,34.70
2018-04-11T11:27:36.967Z,35.00
2018-04-11T11:28:39.490Z,34.80
2018-04-11T11:29:42.774Z,34.30
2018-04-11T11:30:46.072Z,34.20
2018-04-11T11:31:48.592Z,34.20
2018-04-11T11:32:51.104Z,33.60
2018-04-11T11:33:53.686Z,33.30
2018-04-11T11:34:56.198Z,33.40
2018-04-11T11:35:58.738Z,33.40
2018-04-11T11:37:01.254Z,33.30
2018-04-11T11:38:03.787Z,33.20
2018-04-11T11:39:06.301Z,33.10
2018-04-11T11:40:08.830Z,33.00
2018-04-11T11:41:11.357Z,33.00
2018-04-11T11:42:13.870Z,33.00
2018-04-11T11:43:17.175Z,32.70
2018-04-11T11:44:20.480Z,32.60
2018-04-11T11:45:23.022Z,32.50
2018-04-11T11:46:27.701Z,32.00
2018-04-11T11:47:30.241Z,32.00
2018-04-11T11:48:32.749Z,31.70
2018-04-11T11:49:36.063Z,30.30
2018-04-11T11:50:38.586Z,30.80
2018-04-11T11:51:41.117Z,30.60
2018-04-11T11:52:43.623Z,30.80
2018-04-11T11:53:47.207Z,30.50
2018-04-11T11:54:49.792Z,30.20
2018-04-11T11:55:52.291Z,29.60
2018-04-11T11:56:54.818Z,29.70
2018-04-11T11:57:57.442Z,29.40
2018-04-11T11:58:59.990Z,29.40
2018-04-11T12:00:02.546Z,29.30
2018-04-11T12:01:12.311Z,29.00
2018-04-11T12:02:15.055Z,29.00
2018-04-11T12:03:17.533Z,28.80
2018-04-11T12:04:20.045Z,28.70
2018-04-11T12:05:22.572Z,28.50
2018-04-11T12:06:25.087Z,28.50
2018-04-11T12:07:28.372Z,28.70
2018-04-11T12:08:30.892Z,28.20
2018-04-11T12:09:33.386Z,28.90
2018-04-11T12:10:35.900Z,28.00
2018-04-11T12:11:38.475Z,27.80
2018-04-11T12:12:41.060Z,27.70
2018-04-11T12:13:43.570Z,27.60
2018-04-11T12:14:46.071Z,27.60
2018-04-11T12:15:48.630Z,27.30
2018-04-11T12:16:51.135Z,27.00
2018-04-11T12:17:53.754Z,27.10
2018-04-11T12:18:57.023Z,25.60
2018-04-11T12:20:00.289Z,26.00
2018-04-11T12:21:02.815Z,25.90
2018-04-11T12:22:05.311Z,25.70
2018-04-11T12:23:07.842Z,26.00
2018-04-11T12:24:10.402Z,26.00
2018-04-11T12:25:12.952Z,26.00
2018-04-11T12:26:16.222Z,26.00
2018-04-11T12:27:19.617Z,26.00
2018-04-11T12:28:22.900Z,26.00
2018-04-11T12:29:25.604Z,26.00
2018-04-11T12:30:28.192Z,26.00
2018-04-11T12:31:30.691Z,26.40
2018-04-11T12:32:33.972Z,25.80
2018-04-11T12:33:36.558Z,25.80
2018-04-11T12:34:39.080Z,25.60
2018-04-11T12:35:41.594Z,25.50
2018-04-11T12:36:44.132Z,25.40
2018-04-11T12:37:47.557Z,25.90
2018-04-11T12:38:50.073Z,25.30
2018-04-11T12:39:52.598Z,25.20
2018-04-11T12:40:55.173Z,25.20
2018-04-11T12:41:57.669Z,25.30
2018-04-11T12:43:00.986Z,25.00
2018-04-11T12:44:04.306Z,25.40
2018-04-11T12:45:06.854Z,25.40
2018-04-11T12:46:09.370Z,25.20
2018-04-11T12:47:11.930Z,25.10
2018-04-11T12:48:15.967Z,25.00
2018-04-11T12:49:19.235Z,25.00
2018-04-11T12:50:21.743Z,25.00
2018-04-11T12:51:24.252Z,25.00
2018-04-11T12:52:26.751Z,25.00
2018-04-11T12:53:30.023Z,25.00
2018-04-11T12:54:33.288Z,24.80
2018-04-11T12:55:35.865Z,24.80
2018-04-11T12:56:38.319Z,24.60
2018-04-11T12:57:40.850Z,24.60
2018-04-11T12:58:43.381Z,24.30
2018-04-11T12:59:46.670Z,24.10
2018-04-11T13:00:49.230Z,24.10
2018-04-11T13:01:52.507Z,24.10
2018-04-11T13:02:55.774Z,24.10
2018-04-11T13:03:58.271Z,24.10
2018-04-11T13:05:00.866Z,24.20
2018-04-11T13:06:03.371Z,24.10
2018-04-11T13:07:05.910Z,24.20
2018-04-11T13:08:08.452Z,24.30
2018-04-11T13:09:10.964Z,24.40
2018-04-11T13:10:13.474Z,24.40
2018-04-11T13:11:15.981Z,24.50
2018-04-11T13:12:18.530Z,24.20
2018-04-11T13:13:21.027Z,24.00
2018-04-11T13:14:23.638Z,24.00
2018-04-11T13:15:26.192Z,24.10
2018-04-11T13:16:29.469Z,23.50
2018-04-11T13:17:32.748Z,23.40
2018-04-11T13:18:36.043Z,23.40
2018-04-11T13:19:39.319Z,23.40
2018-04-11T13:20:42.722Z,23.40
2018-04-11T13:21:45.239Z,23.40
2018-04-11T13:22:47.770Z,23.40
2018-04-11T13:23:50.273Z,23.40
2018-04-11T13:24:52.785Z,23.20
2018-04-11T13:25:55.363Z,23.30
2018-04-11T13:26:57.871Z,22.10
2018-04-11T13:28:00.394Z,22.60
2018-04-11T13:29:02.906Z,23.00
2018-04-11T13:30:06.175Z,23.00
2018-04-11T13:31:08.680Z,23.00